Terminal Aerodrome Forecast
Issued by NWS Sterling, VA

Current Version | Previous Version | Text Only | Print | Product List | Glossary On
Versions: 1 2 3 4 5 6 7 8 9 10 11 12 13 14 15 16 17 18 19 20 21 22 23 24
000
FTUS41 KLWX 282007 AAA
TAFDCA
TAF AMD
KDCA 282007Z 2820/2918 16009KT P6SM VCTS SCT035CB SCT140 BKN250
      TEMPO 2820/2822 1SM TSRA BKN010CB
     FM290300 12004KT 6SM TSRA OVC060CB
     FM290600 15004KT 5SM SHRA OVC050
     FM290900 21004KT P6SM SHRA BKN040
     FM291200 29006KT P6SM -SHRA OVC050
     FM291500 31009KT P6SM BKN050=

USA.gov is the U.S. government's official web portal to all federal, state and local government web resources and services.